• Join FlightAware (Why Join?)
  • Login
  • US Flag 
05:52PM EDT


 

Airport Tracker/Info


-or-


 

Live Flight TrackerFlight Track Log ✈ AVN21 ✈ 24-Aug-2014 ✈ YBBN / BNE - NVVV / VLI

Flight Track Log - Related Links

Times and Time Zones

All times are in EDT time to prevent confusion due to time zone crossing. See the AVN21 flight status page for this flight to view local times or setup timezone preferences in your user account.

Time Position Orientation Groundspeed Altitude Reporting Facility
EDT Latitude Longitude Course Direction KTS MPH feet Rate Location/Type
08:18AM -27.3752 153.1339 27° Northeast 177 204 100  Level FlightAware ADS-B (YBBN / BNE)
08:18AM -27.3591 153.1857 263° West 17,500 1,200 Climbing Aus ATC (Calculated)
08:18AM -27.3642 153.1401 27° Northeast 189 217 400 -39,840 Descending FlightAware ADS-B (YBBN / BNE)
08:18AM -27.3530 153.1485 42° Northeast 188 216 900 1,560 Climbing FlightAware ADS-B (YBBN / BNE)
08:18AM -27.3473 153.1565 58° Northeast 191 220 1,100 840 Climbing FlightAware ADS-B (YENO)
08:19AM -27.3433 153.1713 85° East 199 229 1,300 840 Climbing FlightAware ADS-B (YENO)
08:19AM -27.3372 153.2453 262° West 17,500 960 Climbing Aus ATC (Calculated)
08:19AM -27.3439 153.1920 93° East 218 251 1,600 -29,820 Descending FlightAware ADS-B (YBBN / BNE)
08:19AM -27.3448 153.2085 94° East 227 261 2,100 2,160 Climbing FlightAware ADS-B (YBBN / BNE)
08:19AM -27.3457 153.2263 93° East 230 265 2,700 2,400 Climbing FlightAware ADS-B (YBBN / BNE)
08:20AM -27.3469 153.2497 90° East 239 275 3,500 2,040 Climbing FlightAware ADS-B (YBBN / BNE)
08:20AM -27.3443 153.2703 75° East 259 298 3,900 1,200 Climbing FlightAware ADS-B (YBBN / BNE)
08:20AM -27.3377 153.2908 66° East 282 325 4,100 780 Climbing FlightAware ADS-B (YBBN / BNE)
08:20AM -27.3289 153.3118 65° Northeast 300 345 4,300 960 Climbing FlightAware ADS-B (YBBN / BNE)
08:21AM -27.3201 153.3324 64° Northeast 316 364 4,600 960 Climbing FlightAware ADS-B (YBBN / BNE)
08:21AM -27.3102 153.3555 65° Northeast 330 380 4,800 1,200 Climbing FlightAware ADS-B (YBBN / BNE)
08:21AM -27.3000 153.3798 65° Northeast 341 392 5,200 1,800 Climbing FlightAware ADS-B (YBBN / BNE)
08:21AM -27.2905 153.4032 66° East 343 395 5,700 1,980 Climbing FlightAware ADS-B (YBBN / BNE)
08:22AM -27.2808 153.4268 65° Northeast 348 400 6,200 1,980 Climbing FlightAware ADS-B (YBBN / BNE)
08:22AM -27.2703 153.4524 65° Northeast 352 405 6,700 2,160 Climbing FlightAware ADS-B (YBBN / BNE)
08:22AM -27.2594 153.4787 65° Northeast 357 411 7,300 2,400 Climbing FlightAware ADS-B (YBBN / BNE)
08:22AM -27.2492 153.5034 65° Northeast 358 412 7,900 3,240 Climbing FlightAware ADS-B (YBBN / BNE)
08:23AM -27.2352 153.5367 65° Northeast 347 399 9,200 3,420 Climbing FlightAware ADS-B (YBBN / BNE)
08:23AM -27.2249 153.5614 65° Northeast 345 397 9,900 2,220 Climbing FlightAware ADS-B (YBBN / BNE)
08:23AM -27.2054 153.6080 65° Northeast 364 419 10,900 1,800 Climbing FlightAware ADS-B (YBBN / BNE)
08:24AM -27.1813 153.6632 61° Northeast 384 442 11,700 2,280 Climbing FlightAware ADS-B (YBBN / BNE)
08:24AM -27.1523 153.7128 57° Northeast 384 442 13,200 3,300 Climbing FlightAware ADS-B (YBBN / BNE)
08:25AM -27.1400 153.7335 56° Northeast 377 434 14,200 3,060 Climbing FlightAware ADS-B (YENO)
08:25AM -27.1089 153.7859 56° Northeast 383 441 15,500 2,580 Climbing FlightAware ADS-B (YBBN / BNE)
08:26AM -27.0791 153.8360 56° Northeast 389 448 16,800 2,460 Climbing FlightAware ADS-B (YBBN / BNE)
08:26AM -27.0492 153.8862 56° Northeast 400 460 18,000 2,160 Climbing FlightAware ADS-B (YBBN / BNE)
08:27AM -27.0185 153.9376 56° Northeast 411 473 19,000 1,860 Climbing FlightAware ADS-B (YBBN / BNE)
08:27AM -27.0055 153.9593 57° Northeast 413 475 19,300 1,860 Climbing FlightAware ADS-B (YENO)
08:27AM -26.9673 154.0231 56° Northeast 432 497 20,400 2,040 Climbing FlightAware ADS-B (YBBN / BNE)
08:28AM -26.9335 154.0794 56° Northeast 437 503 21,500 2,100 Climbing FlightAware ADS-B (YBBN / BNE)
08:29AM -26.9014 154.1329 56° Northeast 440 506 22,600 1,800 Climbing FlightAware ADS-B (YENO)
08:29AM -26.8592 154.2029 56° Northeast 454 522 23,500 1,380 Climbing FlightAware ADS-B (YBBN / BNE)
08:30AM -26.8177 154.2719 56° Northeast 473 544 24,200 1,320 Climbing FlightAware ADS-B (YBBN / BNE)
08:30AM -26.7758 154.3415 56° Northeast 480 552 25,100 1,440 Climbing FlightAware ADS-B (YBBN / BNE)
08:31AM -26.7381 154.4044 56° Northeast 488 562 25,800 1,080 Climbing FlightAware ADS-B (YBBN / BNE)
08:31AM -26.7032 154.4631 56° Northeast 504 580 26,200 660 Climbing FlightAware ADS-B (YBBN / BNE)
08:32AM -26.6587 154.5365 56° Northeast 520 598 26,500 480 Climbing FlightAware ADS-B (YBBN / BNE)
08:32AM -26.6178 154.6036 56° Northeast 539 620 26,700 480 Climbing FlightAware ADS-B (YBBN / BNE)
08:33AM -26.5749 154.6739 56° Northeast 551 634 27,000 660 Climbing FlightAware ADS-B (YBBN / BNE)
08:33AM -26.5315 154.7451 56° Northeast 559 643 27,400 1,200 Climbing FlightAware ADS-B (YBBN / BNE)
08:34AM -26.4884 154.8164 56° Northeast 560 644 28,200 1,980 Climbing FlightAware ADS-B (YBBN / BNE)
08:34AM -26.4475 154.8848 56° Northeast 546 628 29,400 2,460 Climbing FlightAware ADS-B (YBBN / BNE)
08:35AM -26.4033 154.9579 56° Northeast 531 611 30,700 1,980 Climbing FlightAware ADS-B (YBBN / BNE)
08:35AM -26.3648 155.0205 56° Northeast 531 611 31,400 1,140 Climbing FlightAware ADS-B (YBBN / BNE)
08:36AM -26.3101 155.1086 56° Northeast 538 619 32,000 1,020 Climbing FlightAware ADS-B (YBBN / BNE)
08:36AM -26.2664 155.1790 56° Northeast 541 623 32,600 1,140 Climbing FlightAware ADS-B (YBBN / BNE)
08:37AM -26.2239 155.2478 56° Northeast 540 621 33,200 1,380 Climbing FlightAware ADS-B (YBBN / BNE)
08:37AM -26.1810 155.3178 56° Northeast 536 617 34,000 1,380 Climbing FlightAware ADS-B (YBBN / BNE)
08:38AM -26.1381 155.3879 56° Northeast 535 616 34,600 1,080 Climbing FlightAware ADS-B (YBBN / BNE)
08:38AM -26.0914 155.4637 56° Northeast 535 616 35,200 1,200 Climbing FlightAware ADS-B (YBBN / BNE)
08:39AM -26.0404 155.5462 56° Northeast 529 609 36,000 1,200 Climbing FlightAware ADS-B (YBBN / BNE)
08:40AM -26.0001 155.6113 56° Northeast 527 606 36,500 960 Climbing FlightAware ADS-B (YBBN / BNE)
08:40AM -25.9576 155.6797 56° Northeast 526 605 37,000 480 Climbing FlightAware ADS-B (YBBN / BNE)
08:41AM -25.9171 155.7454 56° Northeast 528 608 37,000  Level FlightAware ADS-B (YBBN / BNE)
08:41AM -25.8685 155.8238 56° Northeast 530 610 37,000 120 Level FlightAware ADS-B (YBBN / BNE)
08:42AM -25.8216 155.8984 56° Northeast 521 600 37,200  Climbing Aus ATC (RADAR)
08:42AM -25.8077 155.9213 55° Northeast 531 611 37,000 -300 Descending FlightAware ADS-B (YBBN / BNE)
08:42AM -25.7646 155.9904 55° Northeast 531 611 37,000  Level FlightAware ADS-B (YBBN / BNE)
08:43AM -25.7212 156.0596 55° Northeast 530 610 37,000 120 Level FlightAware ADS-B (YBBN / BNE)
08:44AM -25.6682 156.1451 55° Northeast 522 601 37,200 120 Climbing Aus ATC (RADAR)
08:44AM -25.6152 156.2364 57° Northeast 521 600 37,200  Level Aus ATC (RADAR)
08:45AM -25.5694 156.3164 58° Northeast 519 597 37,200 -180 Level Aus ATC (RADAR)
08:46AM -25.5042 156.4299 58° Northeast 517 595 37,000 -240 Descending Aus ATC (RADAR)
08:46AM -25.4847 156.4638 57° Northeast 517 595 37,000  Level Aus ATC (RADAR)
08:46AM -25.4457 156.5318 58° Northeast 515 593 37,000  Level Aus ATC (RADAR)
08:47AM -25.3790 156.6422 56° Northeast 513 590 37,000  Level Aus ATC (RADAR)
08:48AM -25.3530 156.6873 57° Northeast 513 590 37,000  Level Aus ATC (RADAR)
08:48AM -25.3071 156.7659 57° Northeast 513 590 37,000  Level Aus ATC (RADAR)
08:49AM -25.2184 156.9092 56° Northeast 514 592 37,000  Level Aus ATC (RADAR)
08:49AM -25.2046 156.9309 55° Northeast 514 592 37,000  Level Aus ATC (RADAR)
08:50AM -25.1562 157.0076 55° Northeast 514 592 37,000  Level Aus ATC (RADAR)
08:51AM -25.0988 157.1101 58° Northeast 515 593 37,000  Level Aus ATC (RADAR)
08:51AM -25.0652 157.1659 56° Northeast 514 592 37,000  Level Aus ATC (RADAR)
08:52AM -25.0247 157.2328 56° Northeast 514 592 37,000  Level Aus ATC (RADAR)
08:52AM -24.9779 157.3094 56° Northeast 514 592 37,000  Level Aus ATC (RADAR)
08:55AM -24.7287 157.7262 57° Northeast 37,000  Level Aus ATC (Calculated)
08:57AM -24.6447 157.8659 57° Northeast  Level FlightAware Approximate
08:58AM -24.5726 157.9855 56° Northeast  Level FlightAware Approximate
08:59AM -24.5004 158.1049 56° Northeast  Level FlightAware Approximate
09:00AM -24.4281 158.2242 56° Northeast  Level FlightAware Approximate
09:01AM -24.3557 158.3434 56° Northeast  Level FlightAware Approximate
09:02AM -24.2832 158.4625 56° Northeast  Level FlightAware Approximate
09:03AM -24.2106 158.5814 56° Northeast  Level FlightAware Approximate
09:04AM -24.1380 158.7001 56° Northeast  Level FlightAware Approximate
09:05AM -24.0652 158.8188 56° Northeast  Level FlightAware Approximate
09:06AM -23.9924 158.9373 56° Northeast  Level FlightAware Approximate
09:07AM -23.9194 159.0556 56° Northeast  Level FlightAware Approximate
09:08AM -23.8464 159.1738 56° Northeast  Level FlightAware Approximate
09:09AM -23.5979 159.5686 235° Southwest 37,000  Level Aus ATC (Calculated)
09:09AM -23.7733 159.2919 56° Northeast  Level FlightAware Approximate
09:09AM -23.5297 159.6775 56° Northeast 37,000  Level Aus ATC (Calculated)
09:10AM -23.5243 159.6861 56° Northeast  Level FlightAware Approximate
09:11AM -23.4549 159.7969 56° Northeast  Level FlightAware Approximate
09:12AM -23.3811 159.9142 56° Northeast  Level FlightAware Approximate
09:13AM -23.3073 160.0313 56° Northeast  Level FlightAware Approximate
09:14AM -23.2334 160.1483 56° Northeast  Level FlightAware Approximate
09:15AM -23.1594 160.2652 55° Northeast  Level FlightAware Approximate
09:16AM -23.0853 160.3820 55° Northeast  Level FlightAware Approximate
09:17AM -23.0111 160.4986 55° Northeast  Level FlightAware Approximate
09:18AM -22.9369 160.6151 55° Northeast  Level FlightAware Approximate
09:18AM -22.7987 160.8312 235° Southwest 37,000  Level Aus ATC (Calculated)
09:19AM -22.8625 160.7315 55° Northeast  Level FlightAware Approximate
09:20AM -22.6969 160.9899 55° Northeast  Level FlightAware Approximate
09:21AM -22.6223 161.1058 55° Northeast  Level FlightAware Approximate
09:21AM -22.5791 161.1729 55° Northeast 37,000  Level Aus ATC (Calculated)
09:22AM -22.5043 161.2887 55° Northeast  Level FlightAware Approximate
09:23AM -22.4295 161.4043 55° Northeast  Level FlightAware Approximate
09:24AM -22.3546 161.5199 55° Northeast  Level FlightAware Approximate
09:25AM -22.2796 161.6353 55° Northeast  Level FlightAware Approximate
09:26AM -22.2045 161.7505 55° Northeast  Level FlightAware Approximate
09:27AM -22.1294 161.8657 55° Northeast  Level FlightAware Approximate
09:28AM -22.0541 161.9807 55° Northeast  Level FlightAware Approximate
09:29AM -21.9788 162.0956 55° Northeast  Level FlightAware Approximate
09:30AM -21.9034 162.2104 55° Northeast  Level FlightAware Approximate
09:31AM -21.8280 162.3250 55° Northeast  Level FlightAware Approximate
09:31AM -21.7196 162.4892 235° Southwest 37,000  Level Aus ATC (Calculated)
09:32AM -21.7524 162.4396 55° Northeast  Level FlightAware Approximate
09:33AM -21.5682 162.7178 55° Northeast  Level FlightAware Approximate
09:34AM -21.4924 162.8320 54° Northeast  Level FlightAware Approximate
09:35AM -21.4165 162.9460 54° Northeast  Level FlightAware Approximate
09:36AM -21.3405 163.0598 54° Northeast  Level FlightAware Approximate
09:37AM -21.4165 162.9460 234° Southwest  Level FlightAware Approximate
09:38AM -21.3244 163.0826 54° Northeast  Level FlightAware Approximate
09:39AM -21.2476 163.1957 54° Northeast  Level FlightAware Approximate
09:40AM -21.1706 163.3087 54° Northeast  Level FlightAware Approximate
09:41AM -21.0936 163.4216 54° Northeast  Level FlightAware Approximate
09:42AM -21.0165 163.5344 54° Northeast  Level FlightAware Approximate
09:43AM -20.9393 163.6470 54° Northeast  Level FlightAware Approximate
09:44AM -20.8621 163.7596 54° Northeast  Level FlightAware Approximate
09:45AM -20.7848 163.8720 54° Northeast  Level FlightAware Approximate
09:46AM -20.7074 163.9843 54° Northeast  Level FlightAware Approximate
09:47AM -20.6299 164.0965 54° Northeast  Level FlightAware Approximate
09:48AM -20.5524 164.2086 54° Northeast  Level FlightAware Approximate
09:49AM -20.4748 164.3205 54° Northeast  Level FlightAware Approximate
09:50AM -20.3971 164.4324 53° Northeast  Level FlightAware Approximate
09:51AM -20.3193 164.5441 53° Northeast  Level FlightAware Approximate
09:52AM -20.2415 164.6557 53° Northeast  Level FlightAware Approximate
09:53AM -20.1636 164.7672 53° Northeast  Level FlightAware Approximate
09:54AM -20.0856 164.8786 53° Northeast  Level FlightAware Approximate
09:55AM -20.0076 164.9899 53° Northeast  Level FlightAware Approximate
09:56AM -19.9295 165.1011 53° Northeast  Level FlightAware Approximate
09:57AM -19.8513 165.2122 53° Northeast  Level FlightAware Approximate
09:58AM -19.7731 165.3232 53° Northeast  Level FlightAware Approximate
09:59AM -19.6947 165.4340 53° Northeast  Level FlightAware Approximate
10:00AM -19.6164 165.5448 53° Northeast  Level FlightAware Approximate
10:01AM -19.5379 165.6554 53° Northeast  Level FlightAware Approximate
10:02AM -19.4594 165.7659 53° Northeast  Level FlightAware Approximate
10:03AM -19.3808 165.8763 53° Northeast  Level FlightAware Approximate
10:04AM -19.3022 165.9867 53° Northeast  Level FlightAware Approximate
10:05AM -19.2235 166.0969 53° Northeast  Level FlightAware Approximate
10:06AM -19.1447 166.2070 53° Northeast  Level FlightAware Approximate
10:07AM -19.0658 166.3170 53° Northeast  Level FlightAware Approximate
10:08AM -18.9869 166.4269 53° Northeast  Level FlightAware Approximate
10:09AM -18.9080 166.5367 53° Northeast  Level FlightAware Approximate
10:10AM -18.8289 166.6463 53° Northeast  Level FlightAware Approximate
10:11AM -18.7498 166.7559 53° Northeast  Level FlightAware Approximate
10:12AM -18.6707 166.8654 53° Northeast  Level FlightAware Approximate
10:13AM -18.5914 166.9748 53° Northeast  Level FlightAware Approximate
10:14AM -18.5121 167.0840 53° Northeast  Level FlightAware Approximate
10:15AM -18.4328 167.1932 53° Northeast  Level FlightAware Approximate
10:16AM -18.3533 167.3023 53° Northeast  Level FlightAware Approximate
10:17AM -18.2739 167.4113 52° Northeast  Level FlightAware Approximate
10:18AM -18.1943 167.5202 52° Northeast  Level FlightAware Approximate
10:19AM -18.1147 167.6289 52° Northeast  Level FlightAware Approximate
10:20AM -18.0351 167.7376 52° Northeast  Level FlightAware Approximate
10:21AM -17.9553 167.8462 52° Northeast  Level FlightAware Approximate
10:22AM -17.8755 167.9547 52° Northeast  Level FlightAware Approximate
10:23AM -17.7957 168.0630 52° Northeast  Level FlightAware Approximate
10:24AM -17.7158 168.1713 52° Northeast  Level FlightAware Approximate
10:25AM -17.7007 168.3073 117° Southeast  Level Estimated
10:26AM -17.6991 168.3198 117° Southeast  Level FlightAware Approximate
10:27AM -17.6993 168.3198 117° Southeast  Level Estimated
10:28AM -17.6993 168.3198 117° Southeast  Level Estimated
10:29AM -17.6993 168.3198 117° Southeast  Level Estimated
10:30AM -17.6993 168.3198 117° Southeast  Level Estimated
10:31AM -17.6993 168.3198 117° Southeast  Level Estimated
10:32AM -17.6993 168.3198 117° Southeast  Level Estimated
10:33AM -17.6993 168.3198 117° Southeast  Level Estimated
10:34AM -17.6993 168.3198 117° Southeast  Level Estimated
10:35AM -17.6993 168.3198 117° Southeast  Level Estimated
10:36AM -17.6993 168.3198 117° Southeast  Level Estimated
10:37AM -17.6993 168.3198 117° Southeast  Level Estimated
10:38AM -17.6993 168.3198 117° Southeast  Level Estimated
10:39AM -17.6993 168.3198 117° Southeast  Level Estimated
10:40AM -17.6993 168.3198 117° Southeast  Level Estimated